createdAt,value
2023-01-26T00:00:16.907Z,14.07
2023-01-26T00:02:49.988Z,13.10
2023-01-26T00:05:20.389Z,13.67
2023-01-26T00:07:50.439Z,12.70
2023-01-26T00:10:20.976Z,13.53
2023-01-26T00:12:51.234Z,12.93
2023-01-26T00:15:21.274Z,13.77
2023-01-26T00:17:54.249Z,12.83
2023-01-26T00:20:24.480Z,12.33
2023-01-26T00:22:54.798Z,12.43
2023-01-26T00:25:25.267Z,11.87
2023-01-26T00:27:55.767Z,13.10
2023-01-26T00:30:26.168Z,11.87
2023-01-26T00:32:59.430Z,12.80
2023-01-26T00:35:29.731Z,11.53
2023-01-26T00:38:00.074Z,12.27
2023-01-26T00:40:30.423Z,11.43
2023-01-26T00:43:00.703Z,11.20
2023-01-26T00:45:30.987Z,14.70
2023-01-26T00:48:03.624Z,15.70
2023-01-26T00:50:33.832Z,12.03
2023-01-26T00:53:04.140Z,14.43
2023-01-26T00:55:34.920Z,12.73
2023-01-26T00:58:06.391Z,12.00
2023-01-26T01:00:37.444Z,16.20
2023-01-26T01:03:10.545Z,12.80
2023-01-26T01:05:41.255Z,11.60
2023-01-26T01:08:11.500Z,12.13
2023-01-26T01:10:41.715Z,11.60
2023-01-26T01:13:11.703Z,13.47
2023-01-26T01:15:43.278Z,11.70
2023-01-26T01:18:16.030Z,10.67
2023-01-26T01:20:46.276Z,11.20
2023-01-26T01:23:16.642Z,12.57
2023-01-26T01:25:46.933Z,11.33
2023-01-26T01:28:17.203Z,13.03
2023-01-26T01:30:47.481Z,11.20
2023-01-26T01:33:20.552Z,11.33
2023-01-26T01:35:59.575Z,10.97
2023-01-26T01:38:30.318Z,11.60
2023-01-26T01:41:00.495Z,10.17
2023-01-26T01:43:31.755Z,11.20
2023-01-26T01:46:03.326Z,9.87
2023-01-26T01:48:39.066Z,10.70
2023-01-26T01:51:11.813Z,11.30
2023-01-26T01:53:45.535Z,11.73
2023-01-26T01:56:19.105Z,11.73
2023-01-26T01:58:50.001Z,11.55
2023-01-26T02:01:20.504Z,11.50
2023-01-26T02:03:55.200Z,13.90
2023-01-26T02:06:31.300Z,17.87
2023-01-26T02:09:02.987Z,13.00
2023-01-26T02:11:37.432Z,10.40
2023-01-26T02:16:40.021Z,9.47
2023-01-26T02:19:22.861Z,10.43
2023-01-26T02:21:55.275Z,11.43
2023-01-26T02:24:32.407Z,10.10
2023-01-26T02:27:05.721Z,10.93
2023-01-26T02:29:36.978Z,10.27
2023-01-26T02:32:07.329Z,10.57
2023-01-26T02:34:37.714Z,10.73
2023-01-26T02:37:08.014Z,10.63
2023-01-26T02:39:44.760Z,10.50
2023-01-26T02:42:30.311Z,10.67
2023-01-26T02:45:00.676Z,11.90
2023-01-26T02:47:31.783Z,11.97
2023-01-26T02:50:00.679Z,11.80
2023-01-26T02:52:33.725Z,12.30
2023-01-26T02:55:25.480Z,11.80
2023-01-26T02:57:59.962Z,11.93
2023-01-26T03:00:32.196Z,9.63
2023-01-26T03:03:03.778Z,10.43
2023-01-26T03:05:34.978Z,12.13
2023-01-26T03:08:08.363Z,11.63
2023-01-26T03:10:40.509Z,9.77
2023-01-26T03:13:13.388Z,10.50
2023-01-26T03:15:52.790Z,10.30
2023-01-26T03:18:38.367Z,10.07
2023-01-26T03:21:22.949Z,11.50
2023-01-26T03:24:06.725Z,10.70
2023-01-26T03:26:50.234Z,10.50
2023-01-26T03:29:24.266Z,9.73
2023-01-26T03:31:55.384Z,10.65
2023-01-26T03:34:25.795Z,10.97
2023-01-26T03:36:57.707Z,10.33
2023-01-26T03:39:40.635Z,10.93
2023-01-26T03:42:23.140Z,12.00
2023-01-26T03:45:08.868Z,11.83
2023-01-26T03:47:53.766Z,10.40
2023-01-26T03:50:36.456Z,13.23
2023-01-26T03:53:28.710Z,11.60
2023-01-26T03:56:11.479Z,10.10
2023-01-26T03:58:41.503Z,11.77
2023-01-26T04:01:20.184Z,12.87
2023-01-26T04:04:07.088Z,12.03
2023-01-26T04:06:50.798Z,12.13
2023-01-26T04:09:21.064Z,12.87
2023-01-26T04:11:51.488Z,14.50
2023-01-26T04:14:34.459Z,11.43
2023-01-26T04:17:35.184Z,11.33
2023-01-26T04:20:17.686Z,11.00
2023-01-26T04:22:47.854Z,10.93
2023-01-26T04:25:21.206Z,10.87
2023-01-26T04:27:51.561Z,10.43
2023-01-26T04:30:22.605Z,12.60
2023-01-26T04:32:56.622Z,10.93
2023-01-26T04:35:26.990Z,11.18
2023-01-26T04:37:57.424Z,15.97
2023-01-26T04:40:27.766Z,15.93
2023-01-26T04:42:57.793Z,17.57
2023-01-26T04:45:27.871Z,14.53
2023-01-26T04:48:00.717Z,16.97
2023-01-26T04:50:30.837Z,15.60
2023-01-26T04:53:01.198Z,17.53
2023-01-26T04:55:31.909Z,15.27
2023-01-26T04:58:03.028Z,17.20
2023-01-26T05:00:34.319Z,14.53
2023-01-26T05:03:10.331Z,16.97
2023-01-26T05:05:42.188Z,14.10
2023-01-26T05:08:12.793Z,17.03
2023-01-26T05:10:42.791Z,14.43
2023-01-26T05:13:26.247Z,15.50
2023-01-26T05:16:09.341Z,15.93
2023-01-26T05:18:57.000Z,15.57
2023-01-26T05:21:41.455Z,12.80
2023-01-26T05:24:11.735Z,15.83
2023-01-26T05:27:12.671Z,15.80
2023-01-26T05:29:43.861Z,13.47
2023-01-26T05:32:14.851Z,13.53
2023-01-26T05:34:47.664Z,14.67
2023-01-26T05:37:18.184Z,13.63
2023-01-26T05:39:49.251Z,13.10
2023-01-26T05:42:20.005Z,12.10
2023-01-26T05:45:16.251Z,13.13
2023-01-26T05:47:48.652Z,12.27
2023-01-26T05:50:21.508Z,13.57
2023-01-26T05:53:11.598Z,13.10
2023-01-26T05:55:42.224Z,13.80
2023-01-26T05:58:13.309Z,12.63
2023-01-26T06:00:44.081Z,12.40
2023-01-26T06:03:20.604Z,14.57
2023-01-26T06:05:58.433Z,12.60
2023-01-26T06:08:39.009Z,14.03
2023-01-26T06:11:44.565Z,11.77
2023-01-26T06:14:42.968Z,13.63
2023-01-26T06:17:13.698Z,11.43
2023-01-26T06:19:43.984Z,13.37
2023-01-26T06:22:17.837Z,13.23
2023-01-26T06:24:51.869Z,11.87
2023-01-26T06:27:23.194Z,11.47
2023-01-26T06:29:55.121Z,10.77
2023-01-26T06:32:25.681Z,11.87
2023-01-26T06:35:00.963Z,13.03
2023-01-26T06:37:33.594Z,10.57
2023-01-26T06:40:03.647Z,10.83
2023-01-26T06:42:33.683Z,10.37
2023-01-26T06:45:04.505Z,12.40
2023-01-26T06:47:36.737Z,10.17
2023-01-26T06:50:08.615Z,11.00
2023-01-26T06:52:45.257Z,11.40
2023-01-26T06:55:42.992Z,10.10
2023-01-26T06:58:29.996Z,9.10
2023-01-26T07:01:29.083Z,10.13
2023-01-26T07:03:59.074Z,9.17
2023-01-26T07:06:29.152Z,10.27
2023-01-26T07:09:01.992Z,12.17
2023-01-26T07:11:32.988Z,11.23
2023-01-26T07:14:03.403Z,11.10
2023-01-26T07:16:34.128Z,11.43
2023-01-26T07:19:04.529Z,12.33
2023-01-26T07:21:35.554Z,10.50
2023-01-26T07:24:08.981Z,11.17
2023-01-26T07:26:39.258Z,12.40
2023-01-26T07:29:09.694Z,10.73
2023-01-26T07:31:41.435Z,11.13
2023-01-26T07:34:12.487Z,10.43
2023-01-26T07:36:42.757Z,10.20
2023-01-26T07:39:15.400Z,10.77
2023-01-26T07:41:45.670Z,10.60
2023-01-26T07:44:34.207Z,10.10
2023-01-26T07:47:04.128Z,11.63
2023-01-26T07:49:34.457Z,11.10
2023-01-26T07:52:05.678Z,10.80
2023-01-26T07:54:38.344Z,10.37
2023-01-26T07:57:09.535Z,9.73
2023-01-26T07:59:39.813Z,10.87
2023-01-26T08:02:11.930Z,9.73
2023-01-26T08:04:42.261Z,10.20
2023-01-26T08:07:12.219Z,11.87
2023-01-26T08:09:44.797Z,10.87
2023-01-26T08:12:14.907Z,12.33
2023-01-26T08:14:46.996Z,9.90
2023-01-26T08:17:18.035Z,9.33
2023-01-26T08:19:48.048Z,9.63
2023-01-26T08:22:17.984Z,9.23
2023-01-26T08:24:50.948Z,8.47
2023-01-26T08:27:21.108Z,11.13
2023-01-26T08:29:51.554Z,8.70
2023-01-26T08:32:21.568Z,8.60
2023-01-26T08:34:51.598Z,8.33
2023-01-26T08:37:21.551Z,6.70
2023-01-26T08:39:54.108Z,6.93
2023-01-26T08:42:25.392Z,5.50
2023-01-26T08:44:55.351Z,6.47
2023-01-26T08:47:25.350Z,5.43
2023-01-26T08:49:55.320Z,6.53
2023-01-26T08:52:25.268Z,4.83
2023-01-26T08:54:57.967Z,6.47
2023-01-26T08:57:28.272Z,7.47
2023-01-26T08:59:58.512Z,6.63
2023-01-26T09:02:28.956Z,6.10
2023-01-26T09:04:59.252Z,6.63
2023-01-26T09:07:29.412Z,7.10
2023-01-26T09:10:01.974Z,6.83
2023-01-26T09:12:31.995Z,6.27
2023-01-26T09:15:01.949Z,6.83
2023-01-26T09:17:32.548Z,7.97
2023-01-26T09:20:02.815Z,7.70
2023-01-26T09:22:33.414Z,8.00
2023-01-26T09:25:06.606Z,8.07
2023-01-26T09:27:36.834Z,7.87
2023-01-26T09:30:08.494Z,8.27
2023-01-26T09:32:38.911Z,7.37
2023-01-26T09:35:14.261Z,8.00
2023-01-26T09:37:44.956Z,7.60
2023-01-26T09:40:22.861Z,7.83
2023-01-26T09:43:05.235Z,8.87
2023-01-26T09:45:38.666Z,8.20
2023-01-26T09:48:20.643Z,7.67
2023-01-26T09:50:54.475Z,7.70
2023-01-26T09:53:28.333Z,8.18
2023-01-26T09:56:01.214Z,7.47
2023-01-26T09:58:35.783Z,7.17
2023-01-26T10:01:06.759Z,8.13
2023-01-26T10:03:42.318Z,8.37
2023-01-26T10:06:21.563Z,8.67
2023-01-26T10:09:18.657Z,8.20
2023-01-26T10:11:54.613Z,9.47
2023-01-26T10:14:30.624Z,8.77
2023-01-26T10:17:01.709Z,7.03
2023-01-26T10:19:36.421Z,7.17
2023-01-26T10:22:13.952Z,7.77
2023-01-26T10:24:44.242Z,7.00
2023-01-26T10:27:19.128Z,7.10
2023-01-26T10:29:49.451Z,7.33
2023-01-26T10:32:20.951Z,6.80
2023-01-26T10:34:53.313Z,6.33
2023-01-26T10:37:26.085Z,6.60
2023-01-26T10:40:03.988Z,7.30
2023-01-26T10:42:37.773Z,7.37
2023-01-26T10:45:09.090Z,7.50
2023-01-26T10:47:39.367Z,7.90
2023-01-26T10:50:25.204Z,8.23
2023-01-26T10:53:02.092Z,7.60
2023-01-26T10:55:33.104Z,6.00
2023-01-26T10:58:05.993Z,7.27
2023-01-26T11:00:37.383Z,7.50
2023-01-26T11:03:20.242Z,6.83
2023-01-26T11:06:09.094Z,6.67
2023-01-26T11:08:41.311Z,7.13
2023-01-26T11:11:27.967Z,7.90
2023-01-26T11:14:19.298Z,6.43
2023-01-26T11:16:51.112Z,7.23
2023-01-26T11:19:26.197Z,6.87
2023-01-26T11:21:58.955Z,7.50
2023-01-26T11:24:30.149Z,7.50
2023-01-26T11:27:10.060Z,8.03
2023-01-26T11:30:22.773Z,6.73
2023-01-26T11:33:01.903Z,7.20
2023-01-26T11:35:36.891Z,7.43
2023-01-26T11:38:12.327Z,7.03
2023-01-26T11:40:49.379Z,7.23
2023-01-26T11:43:54.052Z,8.10
2023-01-26T11:46:41.267Z,9.45
2023-01-26T11:49:18.089Z,8.60
2023-01-26T11:51:59.815Z,9.00
2023-01-26T11:54:41.842Z,9.23
2023-01-26T11:57:27.242Z,9.33
2023-01-26T12:00:03.789Z,8.07
2023-01-26T12:02:46.986Z,9.63
2023-01-26T12:05:19.200Z,9.23
2023-01-26T12:07:55.483Z,9.10
2023-01-26T12:10:32.562Z,8.53
2023-01-26T12:13:06.610Z,8.30
2023-01-26T12:15:38.087Z,9.18
2023-01-26T12:18:20.445Z,9.30
2023-01-26T12:20:54.354Z,9.10
2023-01-26T12:23:34.750Z,9.35
2023-01-26T12:26:06.628Z,10.93
2023-01-26T12:28:40.399Z,10.60
2023-01-26T12:31:15.041Z,15.50
2023-01-26T12:33:48.964Z,10.33
2023-01-26T12:36:28.929Z,12.20
2023-01-26T12:39:10.256Z,14.13
2023-01-26T12:41:58.710Z,13.17
2023-01-26T12:44:38.959Z,11.47
2023-01-26T12:47:14.890Z,11.27
2023-01-26T12:49:50.659Z,9.80
2023-01-26T12:52:26.345Z,10.20
2023-01-26T12:55:03.093Z,10.67
2023-01-26T12:57:40.548Z,11.50
2023-01-26T13:00:21.103Z,10.97
2023-01-26T13:02:54.129Z,11.80
2023-01-26T13:05:31.292Z,12.33
2023-01-26T13:08:01.894Z,12.43
2023-01-26T13:10:52.202Z,12.07
2023-01-26T13:13:33.518Z,11.63
2023-01-26T13:16:18.818Z,14.37
2023-01-26T13:18:52.285Z,12.47
2023-01-26T13:21:32.366Z,13.07
2023-01-26T13:24:02.915Z,12.43
2023-01-26T13:26:54.717Z,11.70
2023-01-26T13:29:36.763Z,11.73
2023-01-26T13:32:36.619Z,11.43
2023-01-26T13:35:06.919Z,10.17
2023-01-26T13:37:49.160Z,12.40
2023-01-26T13:40:23.993Z,13.13
2023-01-26T13:43:00.892Z,12.23
2023-01-26T13:45:36.592Z,13.37
2023-01-26T13:48:09.165Z,11.43
2023-01-26T13:50:40.429Z,11.50
2023-01-26T13:53:25.501Z,11.83
2023-01-26T13:56:02.328Z,11.60
2023-01-26T13:58:32.692Z,13.37
2023-01-26T14:01:03.619Z,11.70
2023-01-26T14:03:34.136Z,11.43
2023-01-26T14:06:09.133Z,11.70
2023-01-26T14:08:40.076Z,15.13
2023-01-26T14:11:21.480Z,13.07
2023-01-26T14:13:56.188Z,11.77
2023-01-26T14:16:28.350Z,12.70
2023-01-26T14:19:07.446Z,12.47
2023-01-26T14:21:48.193Z,10.83
2023-01-26T14:24:18.759Z,10.87
2023-01-26T14:26:51.988Z,12.17
2023-01-26T14:29:25.631Z,11.93
2023-01-26T14:31:57.667Z,9.90
2023-01-26T14:34:29.889Z,11.57
2023-01-26T14:37:14.860Z,11.30
2023-01-26T14:39:48.059Z,13.43
2023-01-26T14:42:23.366Z,13.47
2023-01-26T14:44:53.609Z,14.47
2023-01-26T14:47:25.486Z,13.90
2023-01-26T14:50:00.059Z,10.87
2023-01-26T14:52:33.900Z,12.97
2023-01-26T14:55:09.120Z,14.07
2023-01-26T14:57:42.586Z,12.33
2023-01-26T15:00:25.410Z,11.85
2023-01-26T15:02:56.849Z,13.63
2023-01-26T15:05:34.673Z,13.03
2023-01-26T15:08:05.924Z,11.23
2023-01-26T15:10:40.844Z,13.47
2023-01-26T15:13:22.739Z,12.53
2023-01-26T15:16:06.536Z,14.83
2023-01-26T15:18:37.616Z,14.77
2023-01-26T15:21:14.661Z,13.60
2023-01-26T15:23:46.483Z,14.13
2023-01-26T15:26:25.509Z,14.30
2023-01-26T15:28:59.822Z,14.27
2023-01-26T15:31:32.861Z,14.68
2023-01-26T15:34:04.053Z,13.50
2023-01-26T15:36:36.992Z,12.30
2023-01-26T15:39:15.582Z,13.43
2023-01-26T15:41:46.054Z,12.80
2023-01-26T15:44:21.489Z,16.07
2023-01-26T15:46:51.792Z,14.20
2023-01-26T15:49:23.495Z,12.87
2023-01-26T15:51:54.218Z,14.93
2023-01-26T15:54:25.327Z,12.07
2023-01-26T15:56:55.584Z,14.73
2023-01-26T15:59:28.201Z,14.30
2023-01-26T16:01:59.225Z,14.63
2023-01-26T16:04:29.457Z,13.93
2023-01-26T16:06:59.733Z,14.17
2023-01-26T16:09:29.968Z,13.27
2023-01-26T16:12:00.210Z,12.57
2023-01-26T16:14:32.800Z,13.03
2023-01-26T16:17:03.632Z,13.57
2023-01-26T16:19:35.624Z,12.80
2023-01-26T16:22:06.093Z,10.97
2023-01-26T16:24:36.379Z,11.70
2023-01-26T16:27:06.676Z,12.17
2023-01-26T16:29:39.269Z,11.57
2023-01-26T16:32:22.624Z,10.67
2023-01-26T16:34:52.894Z,12.70
2023-01-26T16:37:23.130Z,13.67
2023-01-26T16:39:53.353Z,12.57
2023-01-26T16:42:24.061Z,14.27
2023-01-26T16:44:56.589Z,12.33
2023-01-26T16:47:26.782Z,13.23
2023-01-26T16:49:57.011Z,13.17
2023-01-26T16:52:27.242Z,11.67
2023-01-26T16:54:57.475Z,13.47
2023-01-26T16:57:30.246Z,13.00
2023-01-26T17:00:02.941Z,13.37
2023-01-26T17:02:38.442Z,13.33
2023-01-26T17:05:09.120Z,11.23
2023-01-26T17:07:39.364Z,11.77
2023-01-26T17:10:10.577Z,11.10
2023-01-26T17:12:40.841Z,12.20
2023-01-26T17:15:15.351Z,11.53
2023-01-26T17:20:19.622Z,9.83
2023-01-26T17:22:50.556Z,11.70
2023-01-26T17:25:20.999Z,11.47
2023-01-26T17:27:51.239Z,11.33
2023-01-26T17:30:23.933Z,10.63
2023-01-26T17:32:53.876Z,11.20
2023-01-26T17:35:24.788Z,11.70
2023-01-26T17:37:55.405Z,9.87
2023-01-26T17:40:25.705Z,12.50
2023-01-26T17:42:56.000Z,12.30
2023-01-26T17:45:28.541Z,11.90
2023-01-26T17:47:58.790Z,12.33
2023-01-26T17:50:29.078Z,12.37
2023-01-26T17:52:59.368Z,11.97
2023-01-26T17:55:29.367Z,11.53
2023-01-26T17:57:59.598Z,14.03
2023-01-26T18:00:32.175Z,11.60
2023-01-26T18:03:02.459Z,11.83
2023-01-26T18:05:32.703Z,11.93
2023-01-26T18:08:02.919Z,11.10
2023-01-26T18:10:33.190Z,11.73
2023-01-26T18:13:03.463Z,10.83
2023-01-26T18:15:39.165Z,11.50
2023-01-26T18:18:09.626Z,10.70
2023-01-26T18:20:39.915Z,10.90
2023-01-26T18:23:10.128Z,11.40
2023-01-26T18:25:41.102Z,11.20
2023-01-26T18:28:11.332Z,12.53
2023-01-26T18:30:44.782Z,10.20
2023-01-26T18:33:15.119Z,11.25
2023-01-26T18:35:45.351Z,9.97
2023-01-26T18:38:15.588Z,12.57
2023-01-26T18:40:45.919Z,12.47
2023-01-26T18:43:16.157Z,11.80
2023-01-26T18:45:48.704Z,11.53
2023-01-26T18:48:18.937Z,11.73
2023-01-26T18:50:51.461Z,11.47
2023-01-26T18:53:21.741Z,12.03
2023-01-26T18:55:55.329Z,11.63
2023-01-26T18:58:25.731Z,10.88
2023-01-26T19:00:58.276Z,11.90
2023-01-26T19:03:28.651Z,12.13
2023-01-26T19:05:59.543Z,14.40
2023-01-26T19:08:29.751Z,12.30
2023-01-26T19:11:00.095Z,13.80
2023-01-26T19:13:30.343Z,10.73
2023-01-26T19:16:02.821Z,8.53
2023-01-26T19:18:33.399Z,10.00
2023-01-26T19:21:05.647Z,9.50
2023-01-26T19:23:37.625Z,8.53
2023-01-26T19:26:13.163Z,8.83
2023-01-26T19:28:43.715Z,10.07
2023-01-26T19:31:19.523Z,11.13
2023-01-26T19:33:53.356Z,9.70
2023-01-26T19:36:23.833Z,10.55
2023-01-26T19:38:54.167Z,9.73
2023-01-26T19:41:25.129Z,9.23
2023-01-26T19:43:55.666Z,8.73
2023-01-26T19:46:28.271Z,9.50
2023-01-26T19:48:58.544Z,10.50
2023-01-26T19:51:29.469Z,7.63
2023-01-26T19:54:00.908Z,8.53
2023-01-26T19:56:32.639Z,8.03
2023-01-26T19:59:04.556Z,11.17
2023-01-26T20:01:37.406Z,10.77
2023-01-26T20:04:09.369Z,15.37
2023-01-26T20:06:40.790Z,11.27
2023-01-26T20:09:11.354Z,9.80
2023-01-26T20:11:41.563Z,8.80
2023-01-26T20:14:13.816Z,8.00
2023-01-26T20:16:46.478Z,7.13
2023-01-26T20:19:16.769Z,7.83
2023-01-26T20:21:47.026Z,6.33
2023-01-26T20:24:18.103Z,7.23
2023-01-26T20:26:48.340Z,6.27
2023-01-26T20:29:21.784Z,7.47
2023-01-26T20:31:54.426Z,6.33
2023-01-26T20:34:24.718Z,5.83
2023-01-26T20:37:00.060Z,6.53
2023-01-26T20:39:30.616Z,5.83
2023-01-26T20:42:00.880Z,5.73
2023-01-26T20:44:31.251Z,5.50
2023-01-26T20:47:04.518Z,6.47
2023-01-26T20:49:34.718Z,6.33
2023-01-26T20:52:06.181Z,5.30
2023-01-26T20:54:37.862Z,5.83
2023-01-26T20:57:08.090Z,5.77
2023-01-26T20:59:38.580Z,5.90
2023-01-26T21:02:16.028Z,5.80
2023-01-26T21:04:47.282Z,5.60
2023-01-26T21:07:17.500Z,5.40
2023-01-26T21:09:47.717Z,5.67
2023-01-26T21:12:18.129Z,5.40
2023-01-26T21:14:48.189Z,5.70
2023-01-26T21:17:22.808Z,4.63
2023-01-26T21:19:53.047Z,5.30
2023-01-26T21:22:24.177Z,6.00
2023-01-26T21:24:54.403Z,5.37
2023-01-26T21:27:24.578Z,5.03
2023-01-26T21:29:54.876Z,5.73
2023-01-26T21:32:27.382Z,5.33
2023-01-26T21:34:57.631Z,4.80
2023-01-26T21:37:27.811Z,5.03
2023-01-26T21:39:57.803Z,5.20
2023-01-26T21:42:27.979Z,3.93
2023-01-26T21:45:10.663Z,6.13
2023-01-26T21:47:43.143Z,6.43
2023-01-26T21:50:14.256Z,5.93
2023-01-26T21:52:57.054Z,5.00
2023-01-26T21:55:27.328Z,4.80
2023-01-26T21:58:10.018Z,5.70
2023-01-26T22:00:43.249Z,6.70
2023-01-26T22:03:15.776Z,6.00
2023-01-26T22:05:54.480Z,5.27
2023-01-26T22:08:24.710Z,5.17
2023-01-26T22:10:57.843Z,5.97
2023-01-26T22:13:28.372Z,7.20
2023-01-26T22:15:58.691Z,5.13
2023-01-26T22:18:31.482Z,6.50
2023-01-26T22:21:01.728Z,4.53
2023-01-26T22:23:34.293Z,5.20
2023-01-26T22:26:07.550Z,4.43
2023-01-26T22:28:37.772Z,5.87
2023-01-26T22:31:09.892Z,6.50
2023-01-26T22:33:42.409Z,5.93
2023-01-26T22:36:14.944Z,6.23
2023-01-26T22:38:45.573Z,6.00
2023-01-26T22:41:19.736Z,5.30
2023-01-26T22:43:50.764Z,5.65
2023-01-26T22:46:22.227Z,6.67
2023-01-26T22:48:56.253Z,6.60
2023-01-26T22:51:28.591Z,5.30
2023-01-26T22:53:59.971Z,5.07
2023-01-26T22:56:30.550Z,5.60
2023-01-26T22:59:02.282Z,6.53
2023-01-26T23:01:34.249Z,6.73
2023-01-26T23:04:07.466Z,6.43
2023-01-26T23:06:37.472Z,7.00
2023-01-26T23:09:07.694Z,8.00
2023-01-26T23:11:38.051Z,7.43
2023-01-26T23:14:08.284Z,7.13
2023-01-26T23:16:38.566Z,7.27
2023-01-26T23:19:11.252Z,7.03
2023-01-26T23:21:41.240Z,6.87
2023-01-26T23:24:11.795Z,7.37
2023-01-26T23:26:42.172Z,6.60
2023-01-26T23:29:12.491Z,7.00
2023-01-26T23:31:42.754Z,8.00
2023-01-26T23:34:15.299Z,8.20
2023-01-26T23:36:45.508Z,8.17
2023-01-26T23:39:15.733Z,8.33
2023-01-26T23:41:45.955Z,7.40
2023-01-26T23:44:16.013Z,6.87
2023-01-26T23:46:46.691Z,8.60
2023-01-26T23:49:19.312Z,7.20
2023-01-26T23:51:49.521Z,7.40
2023-01-26T23:54:19.745Z,7.00
2023-01-26T23:56:49.715Z,7.47
2023-01-26T23:59:19.926Z,7.80
